Bentonville, AR (72712)

7:05 AM CST on December 27, 2014 (GMT -0600)
KARBENTO2 | Change Station
CLOSE
Current Station
Personal Weather Station
Location: Bentonville, AR
Elevation: 1289 ft
Nearby Weather Stations

Elev 1289 ft 36.36 °N, 94.20 °W | Updated 4 seconds ago

Overcast
Overcast
36.5 °F
Feels Like 30 °F
N
7.8
Wind Variable Wind from North
Gusts 10.8 mph

Today
High -- | Low -- °F
--% Chance of Precip.
Yesterday
High -- | Low -- °F
Precip. -- in
7:27 AM 5:08 PM
Waxing Crescent, 36% visible
Pressure 30.18 in
Visibility 10.0 miles
Clouds Mostly Cloudy 800 ft
Mostly Cloudy 1500 ft
Overcast 4500 ft
Windchill 30 °F
Dew Point 36 °F
Humidity 100%
Rainfall 0.20 in
Snow Depth Not available.
UV 0 out of 12
Pollen 5.50 out of 12
Air Quality Not available.
Flu Activity Not available.
METAR KVBT 271255Z AUTO 33009G14KT 10SM BKN008 BKN015 OVC045 03/01 A3018 RMK AO1

More Conditions Fewer Conditions

Pressure 30.18 in
Visibility 10.0 miles
Clouds Mostly Cloudy 800 ft
Mostly Cloudy 1500 ft
Overcast 4500 ft
Windchill 30 °F
Dew Point 36 °F
Humidity 100%
Rainfall 0.20 in
Snow Depth Not available.
UV 0 out of 12
Pollen 5.50 out of 12
Air Quality Not available.
Flu Activity Not available.
METAR KVBT 271255Z AUTO 33009G14KT 10SM BKN008 BKN015 OVC045 03/01 A3018 RMK AO1

More Conditions Fewer Conditions

Nowcast | as of 6:48 am CST on December 27, 2014

At 6:39 am... National Weather Service Doppler radars indicated areas of light snow showers occurring mainly along and north of I 44... while light rain... possibly mixed with sleet... was falling to the southeast across parts of east central and southeast Oklahoma into western Arkansas. Movement was to the northeast at 30 mph. Through 9 am... a cold front will continue moving southeastward this morning. Light snow will likely expand toward the southeast as a considerably colder airmass presses southeastward. Temperatures are expected to be too warm however... for any accumulation of snow or sleet to occur.

×

10-Day Weather Forecast

Almanac

Astronomy

Dec. 27, 2014 Rise Set
Actual Time
Civil Twilight
Nautical Twilight
Astronomical Twilight
Moon
Length of Visible Light
Length of Day
Tomorrow will be .
, % of the Moon is Illuminated

Today's Extremes

State Highs State Lows

Community

WunderPhotos

Upload Photos

1,780,890 photos uploaded!

WunderBlogs® & News

Nearby

Air Quality

  Air Quality AQ Index Pollutant
Not available.

Snow Depth

Station Depth Elevation

Earthquake Activity

City Distance Mag. Time & Date
Minimum magnitude displayed is 2.5.

Coastal Water Temperatures

Place Temperature

Nearby Weather Stations